createdAt,value
2018-10-16T00:02:10.613Z,99.90
2018-10-16T00:04:38.583Z,99.90
2018-10-16T00:07:06.731Z,99.90
2018-10-16T00:09:34.533Z,99.90
2018-10-16T00:12:03.511Z,99.90
2018-10-16T00:14:31.646Z,99.90
2018-10-16T00:17:00.438Z,99.90
2018-10-16T00:19:28.249Z,99.90
2018-10-16T00:21:58.181Z,99.90
2018-10-16T00:24:26.014Z,99.90
2018-10-16T00:26:53.919Z,99.90
2018-10-16T00:29:21.977Z,99.90
2018-10-16T00:31:49.841Z,99.90
2018-10-16T00:34:17.724Z,99.90
2018-10-16T00:36:45.531Z,99.90
2018-10-16T00:39:14.541Z,99.90
2018-10-16T00:41:42.571Z,99.90
2018-10-16T00:44:11.569Z,99.90
2018-10-16T00:46:40.570Z,99.90
2018-10-16T00:49:08.434Z,99.90
2018-10-16T00:51:37.822Z,99.90
2018-10-16T00:54:05.663Z,99.90
2018-10-16T00:56:33.460Z,99.90
2018-10-16T00:59:02.316Z,99.90
2018-10-16T01:01:33.851Z,99.90
2018-10-16T01:04:03.825Z,99.90
2018-10-16T01:06:32.611Z,99.90
2018-10-16T01:09:00.432Z,99.90
2018-10-16T01:11:28.310Z,99.90
2018-10-16T01:13:57.136Z,99.90
2018-10-16T01:16:25.204Z,99.90
2018-10-16T01:18:53.115Z,99.90
2018-10-16T01:21:22.145Z,99.90
2018-10-16T01:23:49.935Z,99.90
2018-10-16T01:26:17.764Z,99.90
2018-10-16T01:28:45.822Z,99.90
2018-10-16T01:31:13.669Z,99.90
2018-10-16T01:33:41.506Z,99.90
2018-10-16T01:36:10.473Z,99.90
2018-10-16T01:38:38.397Z,99.90
2018-10-16T01:41:06.871Z,99.90
2018-10-16T01:43:34.738Z,99.90
2018-10-16T01:46:02.531Z,99.90
2018-10-16T01:48:30.368Z,99.90
2018-10-16T01:50:58.174Z,99.90
2018-10-16T01:53:25.974Z,99.90
2018-10-16T01:55:53.797Z,99.90
2018-10-16T01:58:21.603Z,99.90
2018-10-16T02:00:49.406Z,99.90
2018-10-16T02:03:18.225Z,99.90
2018-10-16T02:05:46.091Z,99.90
2018-10-16T02:08:13.903Z,99.90
2018-10-16T02:10:42.771Z,99.90
2018-10-16T02:13:35.045Z,99.90
2018-10-16T02:16:03.133Z,99.90
2018-10-16T02:18:31.224Z,99.90
2018-10-16T02:20:59.225Z,99.90
2018-10-16T02:23:27.202Z,99.90
2018-10-16T02:25:55.126Z,99.90
2018-10-16T02:28:23.509Z,99.90
2018-10-16T02:30:51.521Z,99.90
2018-10-16T02:33:19.529Z,99.90
2018-10-16T02:35:47.494Z,99.90
2018-10-16T02:38:15.457Z,99.90
2018-10-16T02:40:43.451Z,99.90
2018-10-16T02:43:11.438Z,99.90
2018-10-16T02:45:39.324Z,99.90
2018-10-16T02:48:07.255Z,99.90
2018-10-16T02:50:35.194Z,99.90
2018-10-16T02:53:03.235Z,99.90
2018-10-16T02:55:31.193Z,99.90
2018-10-16T02:57:59.145Z,99.90
2018-10-16T03:00:27.128Z,99.90
2018-10-16T03:02:55.116Z,99.90
2018-10-16T03:05:23.078Z,99.90
2018-10-16T03:07:51.016Z,99.90
2018-10-16T03:10:18.967Z,99.90
2018-10-16T03:12:46.948Z,99.90
2018-10-16T03:15:14.810Z,99.90
2018-10-16T03:17:42.651Z,99.90
2018-10-16T03:20:11.133Z,99.90
2018-10-16T03:22:39.597Z,99.90
2018-10-16T03:25:08.953Z,99.90
2018-10-16T03:27:36.954Z,99.90
2018-10-16T03:30:06.081Z,99.90
2018-10-16T03:32:34.901Z,99.90
2018-10-16T03:35:02.830Z,99.90
2018-10-16T03:37:30.632Z,99.90
2018-10-16T03:39:58.581Z,99.90
2018-10-16T03:42:26.434Z,99.90
2018-10-16T03:44:54.261Z,99.90
2018-10-16T03:47:22.115Z,99.90
2018-10-16T03:49:49.949Z,99.90
2018-10-16T03:52:17.754Z,99.90
2018-10-16T03:54:45.584Z,99.90
2018-10-16T03:57:13.554Z,99.90
2018-10-16T03:59:41.331Z,99.90
2018-10-16T04:02:09.161Z,99.90
2018-10-16T04:04:36.958Z,99.90
2018-10-16T04:07:05.292Z,99.90
2018-10-16T04:09:34.126Z,99.90
2018-10-16T04:12:01.973Z,99.90
2018-10-16T04:14:29.776Z,99.90
2018-10-16T04:16:57.629Z,99.90
2018-10-16T04:19:25.505Z,99.90
2018-10-16T04:21:53.335Z,99.90
2018-10-16T04:24:21.169Z,99.90
2018-10-16T04:26:50.037Z,99.90
2018-10-16T04:29:17.933Z,99.90
2018-10-16T04:31:45.742Z,99.90
2018-10-16T04:34:13.585Z,99.90
2018-10-16T04:36:41.450Z,99.90
2018-10-16T04:39:11.216Z,99.90
2018-10-16T04:42:12.699Z,99.90
2018-10-16T04:44:40.752Z,99.90
2018-10-16T04:47:08.774Z,99.90
2018-10-16T04:49:36.699Z,99.90
2018-10-16T04:52:04.804Z,99.90
2018-10-16T04:54:32.745Z,99.90
2018-10-16T04:57:00.703Z,99.90
2018-10-16T04:59:28.627Z,99.90
2018-10-16T05:01:57.587Z,99.90
2018-10-16T05:04:25.533Z,99.90
2018-10-16T05:06:53.513Z,99.90
2018-10-16T05:09:21.452Z,99.90
2018-10-16T05:11:51.351Z,99.90
2018-10-16T05:14:19.309Z,99.90
2018-10-16T05:16:47.332Z,99.90
2018-10-16T05:19:15.400Z,99.90
2018-10-16T05:21:43.328Z,99.90
2018-10-16T05:24:11.449Z,99.90
2018-10-16T05:26:39.834Z,99.90
2018-10-16T05:29:08.660Z,99.90
2018-10-16T05:31:36.827Z,99.90
2018-10-16T05:34:05.043Z,99.90
2018-10-16T05:36:33.067Z,99.90
2018-10-16T05:39:01.100Z,99.90
2018-10-16T05:41:29.158Z,99.90
2018-10-16T05:43:57.138Z,99.90
2018-10-16T05:46:25.723Z,99.90
2018-10-16T05:51:36.823Z,99.90
2018-10-16T05:54:04.831Z,99.90
2018-10-16T05:56:32.707Z,99.90
2018-10-16T05:59:00.581Z,99.90
2018-10-16T06:01:28.430Z,99.90
2018-10-16T06:03:56.304Z,99.90
2018-10-16T06:06:24.164Z,99.90
2018-10-16T06:08:52.048Z,99.90
2018-10-16T06:11:20.633Z,99.90
2018-10-16T06:13:49.484Z,99.90
2018-10-16T06:16:17.297Z,99.90
2018-10-16T06:18:45.130Z,99.90
2018-10-16T06:21:13.016Z,99.90
2018-10-16T06:23:40.967Z,99.90
2018-10-16T06:26:08.857Z,99.90
2018-10-16T06:28:36.693Z,99.90
2018-10-16T06:31:04.618Z,99.90
2018-10-16T06:33:32.551Z,99.90
2018-10-16T06:36:00.402Z,99.90
2018-10-16T06:38:28.226Z,99.90
2018-10-16T06:40:57.179Z,99.90
2018-10-16T06:43:24.914Z,99.90
2018-10-16T06:45:52.786Z,99.90
2018-10-16T06:48:20.733Z,99.90
2018-10-16T06:50:48.488Z,99.90
2018-10-16T06:53:16.434Z,99.90
2018-10-16T06:55:44.270Z,99.90
2018-10-16T06:58:12.085Z,99.90
2018-10-16T07:00:39.943Z,99.90
2018-10-16T07:03:07.866Z,99.90
2018-10-16T07:05:35.695Z,99.90
2018-10-16T07:08:03.818Z,99.90
2018-10-16T07:10:31.673Z,99.90
2018-10-16T07:12:59.534Z,99.90
2018-10-16T07:15:27.345Z,99.90
2018-10-16T07:17:55.194Z,99.90
2018-10-16T07:20:23.019Z,99.90
2018-10-16T07:22:50.880Z,99.90
2018-10-16T07:25:18.769Z,99.90
2018-10-16T07:27:46.622Z,99.90
2018-10-16T07:30:15.646Z,99.90
2018-10-16T07:32:43.469Z,99.90
2018-10-16T07:35:11.335Z,99.90
2018-10-16T07:37:40.497Z,99.90
2018-10-16T07:40:10.460Z,99.90
2018-10-16T07:42:38.595Z,99.90
2018-10-16T07:45:06.813Z,99.90
2018-10-16T07:47:34.714Z,99.90
2018-10-16T07:50:03.314Z,99.90
2018-10-16T07:52:31.142Z,99.90
2018-10-16T07:54:58.979Z,99.90
2018-10-16T07:57:26.864Z,99.90
2018-10-16T07:59:54.747Z,99.90
2018-10-16T08:02:22.537Z,99.90
2018-10-16T08:04:51.498Z,99.90
2018-10-16T08:07:19.335Z,99.90
2018-10-16T08:09:47.185Z,99.90
2018-10-16T08:12:15.009Z,99.90
2018-10-16T08:14:42.902Z,99.90
2018-10-16T08:17:10.755Z,99.90
2018-10-16T08:19:38.617Z,99.90
2018-10-16T08:22:06.553Z,99.90
2018-10-16T08:24:34.373Z,99.90
2018-10-16T08:27:02.237Z,99.90
2018-10-16T08:29:30.099Z,99.90
2018-10-16T08:31:57.970Z,99.90
2018-10-16T08:34:26.859Z,99.90
2018-10-16T08:36:54.722Z,99.90
2018-10-16T08:39:26.241Z,99.90
2018-10-16T08:44:15.362Z,99.90
2018-10-16T08:46:55.351Z,99.90
2018-10-16T08:49:34.455Z,99.90
2018-10-16T08:52:02.301Z,99.90
2018-10-16T08:54:30.132Z,99.90
2018-10-16T08:56:57.951Z,99.90
2018-10-16T08:59:25.840Z,99.90
2018-10-16T09:01:53.713Z,99.90
2018-10-16T09:04:21.527Z,99.90
2018-10-16T09:06:49.411Z,99.90
2018-10-16T09:09:18.006Z,99.90
2018-10-16T09:11:47.088Z,99.90
2018-10-16T09:14:15.509Z,99.90
2018-10-16T09:16:43.401Z,99.90
2018-10-16T09:19:11.280Z,99.90
2018-10-16T09:21:39.256Z,99.90
2018-10-16T09:24:07.217Z,99.90
2018-10-16T09:26:35.054Z,99.90
2018-10-16T09:29:02.876Z,99.90
2018-10-16T09:31:30.740Z,99.90
2018-10-16T09:33:58.605Z,99.90
2018-10-16T09:36:26.478Z,99.90
2018-10-16T09:38:54.325Z,99.90
2018-10-16T09:41:22.153Z,99.90
2018-10-16T09:43:50.009Z,99.90
2018-10-16T09:46:17.853Z,99.90
2018-10-16T09:48:45.740Z,99.90
2018-10-16T09:51:13.586Z,98.50
2018-10-16T09:53:41.424Z,97.50
2018-10-16T09:56:09.241Z,96.90
2018-10-16T09:58:37.130Z,98.00
2018-10-16T10:01:10.493Z,96.40
2018-10-16T10:03:38.337Z,94.30
2018-10-16T10:06:05.902Z,94.20
2018-10-16T10:08:33.768Z,92.50
2018-10-16T10:11:01.741Z,95.20
2018-10-16T10:13:29.635Z,95.30
2018-10-16T10:15:57.602Z,93.80
2018-10-16T10:18:25.430Z,92.00
2018-10-16T10:20:53.295Z,92.80
2018-10-16T10:23:21.237Z,92.90
2018-10-16T10:25:49.105Z,93.50
2018-10-16T10:28:16.938Z,91.60
2018-10-16T10:30:44.760Z,91.10
2018-10-16T10:33:12.617Z,91.30
2018-10-16T10:35:40.666Z,90.20
2018-10-16T10:38:08.425Z,83.20
2018-10-16T10:40:36.297Z,82.50
2018-10-16T10:43:04.446Z,87.90
2018-10-16T10:45:32.331Z,87.70
2018-10-16T10:48:00.194Z,82.20
2018-10-16T10:50:29.296Z,83.00
2018-10-16T10:52:56.921Z,80.50
2018-10-16T10:55:26.808Z,81.10
2018-10-16T10:57:54.737Z,80.40
2018-10-16T11:00:22.624Z,81.70
2018-10-16T11:02:50.583Z,83.70
2018-10-16T11:05:18.435Z,79.30
2018-10-16T11:07:46.271Z,84.70
2018-10-16T11:10:14.472Z,84.20
2018-10-16T11:12:43.228Z,74.00
2018-10-16T11:15:11.072Z,78.40
2018-10-16T11:17:40.157Z,73.30
2018-10-16T11:20:09.740Z,77.40
2018-10-16T11:22:37.702Z,80.60
2018-10-16T11:25:06.694Z,80.50
2018-10-16T11:27:34.627Z,82.80
2018-10-16T11:30:02.549Z,82.40
2018-10-16T11:32:30.400Z,78.90
2018-10-16T11:34:58.250Z,74.10
2018-10-16T11:37:26.091Z,77.70
2018-10-16T11:39:53.910Z,70.30
2018-10-16T11:42:21.818Z,69.60
2018-10-16T11:44:49.716Z,73.90
2018-10-16T11:47:17.611Z,74.00
2018-10-16T11:49:45.492Z,71.80
2018-10-16T11:52:13.379Z,70.60
2018-10-16T11:54:41.249Z,69.30
2018-10-16T11:57:09.144Z,70.80
2018-10-16T11:59:37.021Z,69.50
2018-10-16T12:02:05.111Z,65.40
2018-10-16T12:04:32.987Z,68.50
2018-10-16T12:07:00.870Z,67.90
2018-10-16T12:09:28.719Z,70.20
2018-10-16T12:11:56.574Z,67.40
2018-10-16T12:14:25.353Z,67.70
2018-10-16T12:19:04.774Z,66.90
2018-10-16T12:21:32.666Z,69.10
2018-10-16T12:24:00.573Z,66.20
2018-10-16T12:26:28.394Z,67.00
2018-10-16T12:28:56.336Z,68.00
2018-10-16T12:31:24.087Z,67.40
2018-10-16T12:33:51.918Z,66.80
2018-10-16T12:36:20.766Z,68.80
2018-10-16T12:38:48.587Z,65.80
2018-10-16T12:41:16.461Z,68.90
2018-10-16T12:43:44.360Z,69.80
2018-10-16T12:46:12.320Z,67.70
2018-10-16T12:48:40.023Z,65.30
2018-10-16T12:51:07.916Z,66.30
2018-10-16T12:53:35.746Z,65.80
2018-10-16T12:56:03.764Z,65.00
2018-10-16T12:58:31.541Z,63.40
2018-10-16T13:00:59.407Z,62.60
2018-10-16T13:03:27.293Z,63.60
2018-10-16T13:05:55.083Z,60.90
2018-10-16T13:08:22.948Z,63.90
2018-10-16T13:10:50.772Z,64.10
2018-10-16T13:13:18.570Z,60.40
2018-10-16T13:15:46.437Z,62.20
2018-10-16T13:18:14.272Z,62.50
2018-10-16T13:20:42.134Z,61.00
2018-10-16T13:23:10.122Z,65.00
2018-10-16T13:25:37.854Z,67.10
2018-10-16T13:28:05.687Z,65.20
2018-10-16T13:30:33.486Z,66.40
2018-10-16T13:33:01.338Z,64.10
2018-10-16T13:35:29.112Z,63.30
2018-10-16T13:37:56.932Z,62.00
2018-10-16T13:40:24.744Z,62.90
2018-10-16T13:42:52.600Z,64.80
2018-10-16T13:45:20.334Z,65.70
2018-10-16T13:47:48.193Z,68.60
2018-10-16T13:50:16.572Z,70.10
2018-10-16T13:52:45.029Z,69.00
2018-10-16T13:55:13.104Z,66.60
2018-10-16T13:57:41.338Z,66.90
2018-10-16T14:00:12.326Z,67.70
2018-10-16T14:02:40.913Z,62.80
2018-10-16T14:05:08.794Z,65.90
2018-10-16T14:07:36.648Z,64.60
2018-10-16T14:10:05.986Z,62.20
2018-10-16T14:12:33.837Z,62.10
2018-10-16T14:15:01.717Z,63.00
2018-10-16T14:17:29.579Z,62.40
2018-10-16T14:19:57.542Z,63.10
2018-10-16T14:22:25.361Z,63.00
2018-10-16T14:24:53.204Z,63.20
2018-10-16T14:27:21.053Z,63.60
2018-10-16T14:29:48.906Z,65.10
2018-10-16T14:32:16.770Z,64.70
2018-10-16T14:34:44.802Z,65.60
2018-10-16T14:37:12.469Z,64.00
2018-10-16T14:39:40.349Z,64.00
2018-10-16T14:42:08.269Z,64.50
2018-10-16T14:44:36.128Z,64.90
2018-10-16T14:47:05.195Z,66.60
2018-10-16T14:49:32.993Z,67.40
2018-10-16T14:52:01.911Z,67.70
2018-10-16T14:54:29.784Z,68.90
2018-10-16T14:56:57.669Z,69.10
2018-10-16T14:59:25.564Z,70.40
2018-10-16T15:01:53.476Z,71.60
2018-10-16T15:04:21.272Z,71.20
2018-10-16T15:06:49.119Z,72.10
2018-10-16T15:09:16.960Z,71.20
2018-10-16T15:11:44.800Z,72.30
2018-10-16T15:14:12.746Z,75.40
2018-10-16T15:16:40.662Z,77.20
2018-10-16T15:19:09.142Z,78.60
2018-10-16T15:21:37.006Z,80.40
2018-10-16T15:24:05.216Z,80.80
2018-10-16T15:26:33.066Z,81.00
2018-10-16T15:29:00.967Z,80.10
2018-10-16T15:31:28.870Z,81.60
2018-10-16T15:33:56.790Z,81.80
2018-10-16T15:36:24.646Z,83.40
2018-10-16T15:38:52.584Z,83.70
2018-10-16T15:41:20.564Z,85.30
2018-10-16T15:43:48.359Z,86.50
2018-10-16T15:46:16.246Z,87.80
2018-10-16T15:48:44.093Z,89.00
2018-10-16T15:51:11.951Z,90.00
2018-10-16T15:53:39.867Z,90.40
2018-10-16T15:56:07.822Z,91.20
2018-10-16T15:58:35.677Z,91.60
2018-10-16T16:01:03.641Z,91.40
2018-10-16T16:03:31.491Z,91.60
2018-10-16T16:05:59.380Z,91.70
2018-10-16T16:08:27.288Z,91.70
2018-10-16T16:10:56.181Z,91.90
2018-10-16T16:13:24.076Z,92.10
2018-10-16T16:15:51.965Z,93.20
2018-10-16T16:18:19.781Z,94.00
2018-10-16T16:20:47.698Z,96.60
2018-10-16T16:23:15.601Z,96.00
2018-10-16T16:25:43.514Z,98.60
2018-10-16T16:28:11.377Z,98.30
2018-10-16T16:30:39.264Z,99.00
2018-10-16T16:33:07.127Z,99.90
2018-10-16T16:35:35.005Z,99.90
2018-10-16T16:38:02.895Z,99.90
2018-10-16T16:40:30.778Z,99.90
2018-10-16T16:42:58.660Z,99.90
2018-10-16T16:45:26.541Z,99.90
2018-10-16T16:47:54.408Z,99.90
2018-10-16T16:50:22.337Z,99.90
2018-10-16T16:52:50.193Z,99.90
2018-10-16T16:55:18.069Z,99.90
2018-10-16T16:57:45.899Z,99.90
2018-10-16T17:00:14.442Z,99.90
2018-10-16T17:02:43.432Z,99.90
2018-10-16T17:05:11.798Z,99.90
2018-10-16T17:07:40.193Z,99.90
2018-10-16T17:10:08.581Z,99.90
2018-10-16T17:12:36.633Z,99.90
2018-10-16T17:15:06.115Z,99.90
2018-10-16T17:17:34.073Z,99.90
2018-10-16T17:20:02.052Z,99.90
2018-10-16T17:22:30.946Z,99.90
2018-10-16T17:24:58.900Z,99.90
2018-10-16T17:27:27.754Z,99.90
2018-10-16T17:29:55.732Z,99.90
2018-10-16T17:32:23.829Z,99.90
2018-10-16T17:34:51.800Z,99.90
2018-10-16T17:37:19.648Z,99.90
2018-10-16T17:39:47.559Z,99.90
2018-10-16T17:42:15.411Z,99.90
2018-10-16T17:44:43.276Z,99.90
2018-10-16T17:47:11.222Z,99.90
2018-10-16T17:49:39.077Z,99.90
2018-10-16T17:52:07.140Z,99.90
2018-10-16T17:54:35.170Z,99.90
2018-10-16T17:57:03.220Z,99.90
2018-10-16T17:59:31.034Z,99.90
2018-10-16T18:01:58.940Z,99.90
2018-10-16T18:04:27.846Z,99.90
2018-10-16T18:06:55.749Z,99.90
2018-10-16T18:09:23.779Z,99.90
2018-10-16T18:11:51.665Z,99.90
2018-10-16T18:14:19.527Z,99.90
2018-10-16T18:16:47.446Z,99.90
2018-10-16T18:19:15.381Z,99.90
2018-10-16T18:21:44.266Z,99.90
2018-10-16T18:24:12.134Z,99.90
2018-10-16T18:26:40.036Z,99.90
2018-10-16T18:29:07.949Z,99.90
2018-10-16T18:31:35.922Z,99.90
2018-10-16T18:34:04.066Z,99.90
2018-10-16T18:36:32.008Z,99.90
2018-10-16T18:38:59.986Z,99.90
2018-10-16T18:41:28.829Z,99.90
2018-10-16T18:43:56.750Z,99.90
2018-10-16T18:46:24.664Z,99.90
2018-10-16T18:48:52.753Z,99.90
2018-10-16T18:51:21.642Z,99.90
2018-10-16T18:53:49.789Z,99.90
2018-10-16T18:56:17.961Z,99.90
2018-10-16T18:58:46.166Z,99.90
2018-10-16T19:01:14.301Z,99.90
2018-10-16T19:03:42.287Z,99.90
2018-10-16T19:06:10.395Z,99.90
2018-10-16T19:08:38.401Z,99.90
2018-10-16T19:11:06.622Z,99.90
2018-10-16T19:13:34.629Z,99.90
2018-10-16T19:16:02.773Z,99.90
2018-10-16T19:18:30.827Z,99.90
2018-10-16T19:20:58.928Z,99.90
2018-10-16T19:23:26.906Z,99.90
2018-10-16T19:25:54.990Z,99.90
2018-10-16T19:28:23.085Z,99.90
2018-10-16T19:30:51.273Z,99.90
2018-10-16T19:33:19.279Z,99.90
2018-10-16T19:35:47.476Z,99.90
2018-10-16T19:38:15.486Z,99.90
2018-10-16T19:40:43.588Z,99.90
2018-10-16T19:43:11.599Z,99.90
2018-10-16T19:45:39.743Z,99.90
2018-10-16T19:48:07.754Z,99.90
2018-10-16T19:50:37.744Z,99.90
2018-10-16T19:53:05.885Z,99.90
2018-10-16T19:58:17.170Z,99.90
2018-10-16T20:00:45.099Z,99.90
2018-10-16T20:03:13.001Z,99.90
2018-10-16T20:05:42.933Z,99.90
2018-10-16T20:08:10.761Z,99.90
2018-10-16T20:10:38.664Z,99.90
2018-10-16T20:13:06.600Z,99.90
2018-10-16T20:15:34.568Z,99.90
2018-10-16T20:18:02.513Z,99.90
2018-10-16T20:23:32.040Z,99.90
2018-10-16T20:26:00.182Z,99.90
2018-10-16T20:28:28.285Z,99.90
2018-10-16T20:30:56.382Z,99.90
2018-10-16T20:33:24.345Z,99.90
2018-10-16T20:35:52.334Z,99.90
2018-10-16T20:38:20.352Z,99.90
2018-10-16T20:40:48.425Z,99.90
2018-10-16T20:43:16.639Z,99.90
2018-10-16T20:45:44.732Z,99.90
2018-10-16T20:48:15.362Z,99.90
2018-10-16T20:50:43.459Z,99.90
2018-10-16T20:53:11.510Z,99.90
2018-10-16T20:55:39.630Z,99.90
2018-10-16T20:58:07.659Z,99.90
2018-10-16T21:00:35.933Z,99.90
2018-10-16T21:03:03.944Z,99.90
2018-10-16T21:05:32.060Z,99.90
2018-10-16T21:08:00.073Z,99.90
2018-10-16T21:10:28.119Z,99.90
2018-10-16T21:12:56.097Z,99.90
2018-10-16T21:15:24.172Z,99.90
2018-10-16T21:17:52.153Z,99.90
2018-10-16T21:20:20.211Z,99.90
2018-10-16T21:22:48.141Z,99.90
2018-10-16T21:25:16.109Z,99.90
2018-10-16T21:27:44.931Z,99.90
2018-10-16T21:30:12.781Z,99.90
2018-10-16T21:32:40.644Z,99.90
2018-10-16T21:35:08.583Z,99.90
2018-10-16T21:37:36.411Z,99.90
2018-10-16T21:40:04.817Z,99.90
2018-10-16T21:42:32.683Z,99.90
2018-10-16T21:45:00.499Z,99.90
2018-10-16T21:47:28.341Z,99.90
2018-10-16T21:49:56.212Z,99.90
2018-10-16T21:54:53.126Z,99.90
2018-10-16T21:57:21.235Z,99.90
2018-10-16T21:59:49.269Z,99.90
2018-10-16T22:02:22.675Z,99.90
2018-10-16T22:04:50.639Z,99.90
2018-10-16T22:07:18.669Z,99.90
2018-10-16T22:09:46.659Z,99.90
2018-10-16T22:12:14.781Z,99.90
2018-10-16T22:14:42.729Z,99.90
2018-10-16T22:17:10.752Z,99.90
2018-10-16T22:19:38.641Z,99.90
2018-10-16T22:22:06.681Z,99.90
2018-10-16T22:24:34.650Z,99.90
2018-10-16T22:27:02.633Z,99.90
2018-10-16T22:29:30.625Z,99.90
2018-10-16T22:31:58.636Z,99.90
2018-10-16T22:34:26.659Z,99.90
2018-10-16T22:36:54.668Z,99.90
2018-10-16T22:39:22.597Z,99.90
2018-10-16T22:41:50.619Z,99.90
2018-10-16T22:44:18.575Z,99.90
2018-10-16T22:46:46.603Z,99.90
2018-10-16T22:49:14.652Z,99.90
2018-10-16T22:51:42.653Z,99.90
2018-10-16T22:54:10.615Z,99.90
2018-10-16T22:56:38.458Z,99.90
2018-10-16T22:59:06.409Z,99.90
2018-10-16T23:01:34.241Z,99.90
2018-10-16T23:04:02.133Z,99.90
2018-10-16T23:06:30.016Z,99.90
2018-10-16T23:08:57.859Z,99.90
2018-10-16T23:11:25.696Z,99.90
2018-10-16T23:13:53.538Z,99.90
2018-10-16T23:16:21.391Z,99.90
2018-10-16T23:18:49.200Z,99.90
2018-10-16T23:21:17.029Z,99.90
2018-10-16T23:23:44.899Z,99.90
2018-10-16T23:26:12.726Z,99.90
2018-10-16T23:28:40.530Z,99.90
2018-10-16T23:31:08.424Z,99.90
2018-10-16T23:33:36.311Z,99.90
2018-10-16T23:36:04.157Z,99.90
2018-10-16T23:38:31.999Z,99.90
2018-10-16T23:40:59.921Z,99.90
2018-10-16T23:43:27.726Z,99.90
2018-10-16T23:45:55.605Z,99.90
2018-10-16T23:48:23.420Z,99.90
2018-10-16T23:50:51.283Z,99.90
2018-10-16T23:53:19.122Z,99.90
2018-10-16T23:55:46.951Z,99.90
2018-10-16T23:58:14.746Z,99.90
